Homer, Ohio
Current Conditions -  °F | °C
As of 2:35 PM on Friday 28 Nov 2014 (Local Time) from K4I3 Reporting Station
Broken Clouds Broken Clouds  
Wind Chill: 21°   Ceiling: 2800
Heat Index: 28°   Visibility: 10mi
Dew Point: 18°   Wind: 7mph
Humidity: 64%   Direction: 190°S
Pressure: 30.23"   Gusts: NA
Location:  40.25°N, 82.51°W
Report Text: K4I3 281935Z AUTO 19006KT 10SM BKN028 M02/M08 A3023 RMK AO2
Loading
Personal Weather Stations






























Interactive Weather Map New forecast layout! Learn more

10-Day Weather Forecast

Advertisements
Track Severe Weather on mobile